createdAt,value
2023-05-18T00:00:56.106Z,2.89
2023-05-18T00:01:56.081Z,2.90
2023-05-18T00:02:56.264Z,2.91
2023-05-18T00:03:56.255Z,2.87
2023-05-18T00:04:56.173Z,2.88
2023-05-18T00:05:56.106Z,2.90
2023-05-18T00:06:56.174Z,2.86
2023-05-18T00:07:56.184Z,2.80
2023-05-18T00:08:56.179Z,2.83
2023-05-18T00:09:56.205Z,2.87
2023-05-18T00:10:56.207Z,2.80
2023-05-18T00:11:56.196Z,2.86
2023-05-18T00:12:56.222Z,2.78
2023-05-18T00:13:56.231Z,2.78
2023-05-18T00:14:56.278Z,2.79
2023-05-18T00:15:56.307Z,2.74
2023-05-18T00:16:56.261Z,2.80
2023-05-18T00:17:56.309Z,2.76
2023-05-18T00:18:56.310Z,2.76
2023-05-18T00:19:56.329Z,2.72
2023-05-18T00:20:56.382Z,2.75
2023-05-18T00:21:56.343Z,2.74
2023-05-18T00:22:56.347Z,2.68
2023-05-18T00:23:56.382Z,2.72
2023-05-18T00:24:56.603Z,2.70
2023-05-18T00:25:56.399Z,2.68
2023-05-18T00:26:56.393Z,2.65
2023-05-18T00:27:56.418Z,2.69
2023-05-18T00:28:56.452Z,2.68
2023-05-18T00:29:56.477Z,2.64
2023-05-18T00:30:56.489Z,2.64
2023-05-18T00:31:56.620Z,2.61
2023-05-18T00:32:56.527Z,2.63
2023-05-18T00:33:56.558Z,2.61
2023-05-18T00:34:56.570Z,2.59
2023-05-18T00:35:56.577Z,2.57
2023-05-18T00:36:56.548Z,2.62
2023-05-18T00:37:56.565Z,2.58
2023-05-18T00:38:56.622Z,2.53
2023-05-18T00:39:56.654Z,2.55
2023-05-18T00:40:56.660Z,2.57
2023-05-18T00:41:56.685Z,2.56
2023-05-18T00:42:56.719Z,2.56
2023-05-18T00:43:56.722Z,2.57
2023-05-18T00:44:56.747Z,2.52
2023-05-18T00:45:56.761Z,2.47
2023-05-18T00:46:56.758Z,2.49
2023-05-18T00:47:56.829Z,2.50
2023-05-18T00:48:56.821Z,2.48
2023-05-18T00:49:56.832Z,2.49
2023-05-18T00:50:56.830Z,2.47
2023-05-18T00:51:56.847Z,2.46
2023-05-18T00:52:56.901Z,2.46
2023-05-18T00:53:56.903Z,2.47
2023-05-18T00:54:57.138Z,2.42
2023-05-18T00:55:56.909Z,2.42
2023-05-18T00:56:56.978Z,2.48
2023-05-18T00:57:57.030Z,2.39
2023-05-18T00:58:57.018Z,2.39
2023-05-18T00:59:57.001Z,2.39
2023-05-18T01:00:57.122Z,2.44
2023-05-18T01:01:57.089Z,2.38
2023-05-18T01:02:57.187Z,2.38
2023-05-18T01:03:57.074Z,2.35
2023-05-18T01:04:57.135Z,2.36
2023-05-18T01:05:57.147Z,2.41
2023-05-18T01:06:57.150Z,2.36
2023-05-18T01:07:57.219Z,2.33
2023-05-18T01:08:57.213Z,2.38
2023-05-18T01:09:57.623Z,2.28
2023-05-18T01:10:57.252Z,2.32
2023-05-18T01:11:57.241Z,2.32
2023-05-18T01:12:57.310Z,2.31
2023-05-18T01:13:57.304Z,2.33
2023-05-18T01:14:57.305Z,2.26
2023-05-18T01:15:57.369Z,2.25
2023-05-18T01:16:57.415Z,2.30
2023-05-18T01:17:57.421Z,2.25
2023-05-18T01:18:57.479Z,2.27
2023-05-18T01:19:57.443Z,2.27
2023-05-18T01:20:57.453Z,2.24
2023-05-18T01:21:57.471Z,2.18
2023-05-18T01:22:57.487Z,2.25
2023-05-18T01:23:57.525Z,2.21
2023-05-18T01:24:57.581Z,2.25
2023-05-18T01:25:57.542Z,2.19
2023-05-18T01:26:57.621Z,2.17
2023-05-18T01:27:57.605Z,2.22
2023-05-18T01:28:57.601Z,2.20
2023-05-18T01:29:57.661Z,2.24
2023-05-18T01:30:57.717Z,2.19
2023-05-18T01:31:57.654Z,2.23
2023-05-18T01:32:57.749Z,2.15
2023-05-18T01:33:57.695Z,2.21
2023-05-18T01:34:57.730Z,2.17
2023-05-18T01:35:57.707Z,2.14
2023-05-18T01:36:57.765Z,2.12
2023-05-18T01:37:57.768Z,2.13
2023-05-18T01:38:57.824Z,2.12
2023-05-18T01:39:58.150Z,2.12
2023-05-18T01:40:57.825Z,2.18
2023-05-18T01:41:57.877Z,2.11
2023-05-18T01:42:57.852Z,2.10
2023-05-18T01:43:57.913Z,2.09
2023-05-18T01:44:57.915Z,2.13
2023-05-18T01:45:58.006Z,2.10
2023-05-18T01:46:57.958Z,2.08
2023-05-18T01:47:58.018Z,2.06
2023-05-18T01:48:58.041Z,2.09
2023-05-18T01:49:58.063Z,2.08
2023-05-18T01:50:58.082Z,2.03
2023-05-18T01:51:58.097Z,2.12
2023-05-18T01:52:58.165Z,2.07
2023-05-18T01:53:58.137Z,2.06
2023-05-18T01:54:58.173Z,2.01
2023-05-18T01:55:58.198Z,2.04
2023-05-18T01:56:58.224Z,2.02
2023-05-18T01:57:58.236Z,2.03
2023-05-18T01:58:58.248Z,2.02
2023-05-18T01:59:58.625Z,2.02
2023-05-18T02:00:58.288Z,2.03
2023-05-18T02:01:59.262Z,1.98
2023-05-18T02:02:58.433Z,1.97
2023-05-18T02:03:58.515Z,2.00
2023-05-18T02:04:58.679Z,2.01
2023-05-18T02:05:58.432Z,1.99
2023-05-18T02:06:58.475Z,1.96
2023-05-18T02:07:58.490Z,1.95
2023-05-18T02:08:58.516Z,1.96
2023-05-18T02:09:58.676Z,1.99
2023-05-18T02:10:58.539Z,1.95
2023-05-18T02:11:58.599Z,1.99
2023-05-18T02:12:58.614Z,1.93
2023-05-18T02:13:58.662Z,1.95
2023-05-18T02:14:59.159Z,1.94
2023-05-18T02:15:58.708Z,1.94
2023-05-18T02:16:58.726Z,1.89
2023-05-18T02:17:58.808Z,1.93
2023-05-18T02:18:58.820Z,1.90
2023-05-18T02:19:58.867Z,1.92
2023-05-18T02:20:58.802Z,1.91
2023-05-18T02:21:58.843Z,1.92
2023-05-18T02:22:58.913Z,1.92
2023-05-18T02:23:58.927Z,1.88
2023-05-18T02:24:59.011Z,1.87
2023-05-18T02:25:59.114Z,1.89
2023-05-18T02:26:58.991Z,1.88
2023-05-18T02:27:58.994Z,1.88
2023-05-18T02:28:59.045Z,1.87
2023-05-18T02:29:59.124Z,1.89
2023-05-18T02:30:59.128Z,1.88
2023-05-18T02:31:59.220Z,1.89
2023-05-18T02:32:59.180Z,1.88
2023-05-18T02:33:59.181Z,1.82
2023-05-18T02:34:59.302Z,1.83
2023-05-18T02:35:59.248Z,1.88
2023-05-18T02:36:59.278Z,1.83
2023-05-18T02:37:59.321Z,1.79
2023-05-18T02:38:59.335Z,1.81
2023-05-18T02:39:59.348Z,1.77
2023-05-18T02:40:59.401Z,1.78
2023-05-18T02:41:59.435Z,1.80
2023-05-18T02:42:59.515Z,1.78
2023-05-18T02:43:59.500Z,1.82
2023-05-18T02:44:59.666Z,1.77
2023-05-18T02:45:59.564Z,1.78
2023-05-18T02:46:59.577Z,1.83
2023-05-18T02:47:59.734Z,1.74
2023-05-18T02:48:59.671Z,1.75
2023-05-18T02:49:59.667Z,1.75
2023-05-18T02:50:59.684Z,1.78
2023-05-18T02:51:59.728Z,1.76
2023-05-18T02:52:59.716Z,1.75
2023-05-18T02:53:59.765Z,1.77
2023-05-18T02:54:59.817Z,1.77
2023-05-18T02:55:59.816Z,1.77
2023-05-18T02:56:59.841Z,1.73
2023-05-18T02:57:59.854Z,1.74
2023-05-18T02:58:59.997Z,1.73
2023-05-18T02:59:59.927Z,1.76
2023-05-18T03:00:59.987Z,1.72
2023-05-18T03:02:00.075Z,1.74
2023-05-18T03:03:00.055Z,1.72
2023-05-18T03:04:00.044Z,1.69
2023-05-18T03:05:00.214Z,1.73
2023-05-18T03:06:00.091Z,1.70
2023-05-18T03:07:00.129Z,1.69
2023-05-18T03:08:00.164Z,1.70
2023-05-18T03:09:00.215Z,1.70
2023-05-18T03:10:00.224Z,1.67
2023-05-18T03:11:00.245Z,1.71
2023-05-18T03:12:00.258Z,1.68
2023-05-18T03:13:00.305Z,1.64
2023-05-18T03:14:00.334Z,1.69
2023-05-18T03:15:00.382Z,1.67
2023-05-18T03:16:00.413Z,1.69
2023-05-18T03:17:00.534Z,1.65
2023-05-18T03:18:00.507Z,1.66
2023-05-18T03:19:00.512Z,1.66
2023-05-18T03:20:00.596Z,1.64
2023-05-18T03:21:00.548Z,1.61
2023-05-18T03:22:00.603Z,1.69
2023-05-18T03:23:00.611Z,1.61
2023-05-18T03:24:00.641Z,1.63
2023-05-18T03:25:00.717Z,1.61
2023-05-18T03:26:00.744Z,1.66
2023-05-18T03:27:00.801Z,1.61
2023-05-18T03:28:00.786Z,1.59
2023-05-18T03:29:00.862Z,1.62
2023-05-18T03:30:00.861Z,1.63
2023-05-18T03:31:00.965Z,1.59
2023-05-18T03:32:00.952Z,1.56
2023-05-18T03:33:01.035Z,1.62
2023-05-18T03:34:01.002Z,1.56
2023-05-18T03:35:01.080Z,1.56
2023-05-18T03:36:01.097Z,1.57
2023-05-18T03:37:01.130Z,1.60
2023-05-18T03:38:01.173Z,1.58
2023-05-18T03:39:01.179Z,1.55
2023-05-18T03:40:01.245Z,1.58
2023-05-18T03:41:01.248Z,1.57
2023-05-18T03:42:01.298Z,1.55
2023-05-18T03:43:01.312Z,1.54
2023-05-18T03:44:01.322Z,1.58
2023-05-18T03:45:01.421Z,1.55
2023-05-18T03:46:01.466Z,1.57
2023-05-18T03:47:01.471Z,1.58
2023-05-18T03:48:01.493Z,1.56
2023-05-18T03:49:01.499Z,1.51
2023-05-18T03:50:01.538Z,1.53
2023-05-18T03:51:01.582Z,1.54
2023-05-18T03:52:01.582Z,1.57
2023-05-18T03:53:01.638Z,1.50
2023-05-18T03:54:01.703Z,1.55
2023-05-18T03:55:02.218Z,1.50
2023-05-18T03:56:01.762Z,1.48
2023-05-18T03:57:01.797Z,1.50
2023-05-18T03:58:01.817Z,1.49
2023-05-18T03:59:01.899Z,1.52
2023-05-18T04:00:01.888Z,1.51
2023-05-18T04:01:01.936Z,1.49
2023-05-18T04:02:01.957Z,1.50
2023-05-18T04:03:02.067Z,1.49
2023-05-18T04:04:02.062Z,1.50
2023-05-18T04:05:02.082Z,1.48
2023-05-18T04:06:02.105Z,1.47
2023-05-18T04:07:02.155Z,1.46
2023-05-18T04:08:02.199Z,1.48
2023-05-18T04:09:02.209Z,1.48
2023-05-18T04:10:02.699Z,1.45
2023-05-18T04:11:02.260Z,1.48
2023-05-18T04:12:02.303Z,1.47
2023-05-18T04:13:02.390Z,1.49
2023-05-18T04:14:02.405Z,1.47
2023-05-18T04:15:02.764Z,1.44
2023-05-18T04:16:02.498Z,1.42
2023-05-18T04:17:02.507Z,1.47
2023-05-18T04:18:02.606Z,1.45
2023-05-18T04:19:03.088Z,1.45
2023-05-18T04:20:02.714Z,1.44
2023-05-18T04:21:02.655Z,1.41
2023-05-18T04:22:02.674Z,1.41
2023-05-18T04:23:02.719Z,1.43
2023-05-18T04:24:02.797Z,1.43
2023-05-18T04:25:02.781Z,1.43
2023-05-18T04:26:02.826Z,1.40
2023-05-18T04:27:02.938Z,1.43
2023-05-18T04:28:02.898Z,1.41
2023-05-18T04:29:02.939Z,1.40
2023-05-18T04:30:02.950Z,1.40
2023-05-18T04:31:03.014Z,1.39
2023-05-18T04:32:03.099Z,1.43
2023-05-18T04:33:03.096Z,1.42
2023-05-18T04:34:03.070Z,1.36
2023-05-18T04:35:03.131Z,1.37
2023-05-18T04:36:03.204Z,1.35
2023-05-18T04:37:03.179Z,1.33
2023-05-18T04:38:03.198Z,1.36
2023-05-18T04:39:03.259Z,1.35
2023-05-18T04:40:03.741Z,1.38
2023-05-18T04:41:03.334Z,1.33
2023-05-18T04:42:03.376Z,1.35
2023-05-18T04:43:03.480Z,1.36
2023-05-18T04:44:03.457Z,1.36
2023-05-18T04:45:03.707Z,1.36
2023-05-18T04:46:03.622Z,1.35
2023-05-18T04:47:03.596Z,1.32
2023-05-18T04:48:03.623Z,1.35
2023-05-18T04:49:03.705Z,1.31
2023-05-18T04:50:03.739Z,1.32
2023-05-18T04:51:03.761Z,1.32
2023-05-18T04:52:03.781Z,1.33
2023-05-18T04:53:03.796Z,1.29
2023-05-18T04:54:03.950Z,1.32
2023-05-18T04:55:04.230Z,1.30
2023-05-18T04:56:03.938Z,1.30
2023-05-18T04:57:03.990Z,1.28
2023-05-18T04:58:04.005Z,1.33
2023-05-18T04:59:04.039Z,1.30
2023-05-18T05:00:04.224Z,1.30
2023-05-18T05:01:04.213Z,1.34
2023-05-18T05:02:04.161Z,1.31
2023-05-18T05:03:04.287Z,1.30
2023-05-18T05:04:04.245Z,1.29
2023-05-18T05:05:04.730Z,1.32
2023-05-18T05:06:04.331Z,1.30
2023-05-18T05:07:04.372Z,1.30
2023-05-18T05:08:04.432Z,1.28
2023-05-18T05:09:04.440Z,1.31
2023-05-18T05:10:04.721Z,1.28
2023-05-18T05:11:04.557Z,1.28
2023-05-18T05:12:04.609Z,1.23
2023-05-18T05:13:04.637Z,1.28
2023-05-18T05:14:04.644Z,1.27
2023-05-18T05:15:04.679Z,1.29
2023-05-18T05:16:04.802Z,1.27
2023-05-18T05:17:04.771Z,1.25
2023-05-18T05:18:04.893Z,1.26
2023-05-18T05:19:04.849Z,1.26
2023-05-18T05:20:05.223Z,1.27
2023-05-18T05:21:04.964Z,1.26
2023-05-18T05:22:04.980Z,1.27
2023-05-18T05:23:05.038Z,1.25
2023-05-18T05:24:05.107Z,1.24
2023-05-18T05:25:06.187Z,1.23
2023-05-18T05:26:05.165Z,1.22
2023-05-18T05:27:05.173Z,1.25
2023-05-18T05:28:05.220Z,1.23
2023-05-18T05:29:05.229Z,1.23
2023-05-18T05:30:05.298Z,1.22
2023-05-18T05:31:05.377Z,1.24
2023-05-18T05:32:05.455Z,1.23
2023-05-18T05:33:05.428Z,1.21
2023-05-18T05:34:05.466Z,1.21
2023-05-18T05:35:05.485Z,1.22
2023-05-18T05:36:05.552Z,1.21
2023-05-18T05:37:05.596Z,1.19
2023-05-18T05:38:05.615Z,1.19
2023-05-18T05:39:05.670Z,1.19
2023-05-18T05:40:05.765Z,1.20
2023-05-18T05:41:05.732Z,1.20
2023-05-18T05:42:05.774Z,1.16
2023-05-18T05:43:05.810Z,1.17
2023-05-18T05:44:05.882Z,1.18
2023-05-18T05:45:05.892Z,1.18
2023-05-18T05:46:05.913Z,1.16
2023-05-18T05:47:06.042Z,1.16
2023-05-18T05:48:06.024Z,1.17
2023-05-18T05:49:06.039Z,1.15
2023-05-18T05:50:06.258Z,1.17
2023-05-18T05:51:06.134Z,1.15
2023-05-18T05:52:06.187Z,1.14
2023-05-18T05:53:06.370Z,1.16
2023-05-18T05:54:06.896Z,1.11
2023-05-18T05:55:06.297Z,1.16
2023-05-18T05:56:06.342Z,1.15
2023-05-18T05:57:06.404Z,1.11
2023-05-18T05:58:06.452Z,1.12
2023-05-18T05:59:06.530Z,1.10
2023-05-18T06:00:06.781Z,1.10
2023-05-18T06:01:06.606Z,1.10
2023-05-18T06:02:06.647Z,1.09
2023-05-18T06:03:06.781Z,1.10
2023-05-18T06:04:06.756Z,1.12
2023-05-18T06:05:06.772Z,1.10
2023-05-18T06:06:06.751Z,1.13
2023-05-18T06:07:06.782Z,1.10
2023-05-18T06:08:06.790Z,1.14
2023-05-18T06:09:06.832Z,1.13
2023-05-18T06:10:07.257Z,1.08
2023-05-18T06:11:07.773Z,1.08
2023-05-18T06:12:06.965Z,1.07
2023-05-18T06:13:07.001Z,1.09
2023-05-18T06:14:07.028Z,1.06
2023-05-18T06:15:07.279Z,1.08
2023-05-18T06:16:07.105Z,1.09
2023-05-18T06:17:07.161Z,1.06
2023-05-18T06:18:07.215Z,1.09
2023-05-18T06:19:07.230Z,1.06
2023-05-18T06:20:07.791Z,1.07
2023-05-18T06:21:07.273Z,1.07
2023-05-18T06:22:07.290Z,1.08
2023-05-18T06:23:07.362Z,1.07
2023-05-18T06:24:07.450Z,1.04
2023-05-18T06:25:07.433Z,1.06
2023-05-18T06:26:07.428Z,1.04
2023-05-18T06:27:07.512Z,1.05
2023-05-18T06:28:07.555Z,1.05
2023-05-18T06:29:07.548Z,1.02
2023-05-18T06:30:07.552Z,1.03
2023-05-18T06:31:07.628Z,1.03
2023-05-18T06:32:07.723Z,1.03
2023-05-18T06:33:07.748Z,1.04
2023-05-18T06:34:07.829Z,1.03
2023-05-18T06:35:08.283Z,1.03
2023-05-18T06:36:07.798Z,1.05
2023-05-18T06:37:07.801Z,1.04
2023-05-18T06:38:07.864Z,1.04
2023-05-18T06:39:07.873Z,1.02
2023-05-18T06:40:07.927Z,1.02
2023-05-18T06:41:07.939Z,1.03
2023-05-18T06:42:08.009Z,0.99
2023-05-18T06:43:08.773Z,0.99
2023-05-18T06:44:08.066Z,1.01
2023-05-18T06:45:08.112Z,1.00
2023-05-18T06:46:08.174Z,1.00
2023-05-18T06:47:08.156Z,0.98
2023-05-18T06:48:08.219Z,0.97
2023-05-18T06:49:08.201Z,1.01
2023-05-18T06:50:08.243Z,0.99
2023-05-18T06:51:08.251Z,0.99
2023-05-18T06:52:08.288Z,0.98
2023-05-18T06:53:08.342Z,0.98
2023-05-18T06:54:08.345Z,0.98
2023-05-18T06:55:08.410Z,0.98
2023-05-18T06:56:08.444Z,0.98
2023-05-18T06:57:08.488Z,0.99
2023-05-18T06:58:08.476Z,0.95
2023-05-18T06:59:08.542Z,0.94
2023-05-18T07:00:08.822Z,0.95
2023-05-18T07:01:08.643Z,0.97
2023-05-18T07:02:08.613Z,0.95
2023-05-18T07:03:08.738Z,0.96
2023-05-18T07:04:08.702Z,0.94
2023-05-18T07:05:08.844Z,0.93
2023-05-18T07:06:08.679Z,0.95
2023-05-18T07:07:08.706Z,0.94
2023-05-18T07:08:08.796Z,0.95
2023-05-18T07:09:08.769Z,0.94
2023-05-18T07:10:09.294Z,0.93
2023-05-18T07:11:08.793Z,0.93
2023-05-18T07:12:08.840Z,0.92
2023-05-18T07:13:08.869Z,0.93
2023-05-18T07:14:08.882Z,0.92
2023-05-18T07:15:09.302Z,0.91
2023-05-18T07:16:08.985Z,0.92
2023-05-18T07:17:09.016Z,0.92
2023-05-18T07:18:09.052Z,0.89
2023-05-18T07:19:09.074Z,0.92
2023-05-18T07:20:09.055Z,0.91
2023-05-18T07:21:09.079Z,0.91
2023-05-18T07:22:09.103Z,0.91
2023-05-18T07:23:09.105Z,0.91
2023-05-18T07:24:09.105Z,0.89
2023-05-18T07:25:09.331Z,0.91
2023-05-18T07:26:09.203Z,0.88
2023-05-18T07:27:09.185Z,0.90
2023-05-18T07:28:09.224Z,0.90
2023-05-18T07:29:09.266Z,0.88
2023-05-18T07:30:09.863Z,0.88
2023-05-18T07:31:09.384Z,0.88
2023-05-18T07:32:09.343Z,0.87
2023-05-18T07:33:09.391Z,0.88
2023-05-18T07:34:09.338Z,0.87
2023-05-18T07:35:09.770Z,0.88
2023-05-18T07:36:09.388Z,0.90
2023-05-18T07:37:09.408Z,0.90
2023-05-18T07:38:09.438Z,0.90
2023-05-18T07:39:09.475Z,0.89
2023-05-18T07:40:09.816Z,0.88
2023-05-18T07:41:09.499Z,0.87
2023-05-18T07:42:09.564Z,0.87
2023-05-18T07:43:09.611Z,0.87
2023-05-18T07:44:09.563Z,0.89
2023-05-18T07:45:09.783Z,0.86
2023-05-18T07:46:09.617Z,0.85
2023-05-18T07:47:09.695Z,0.86
2023-05-18T07:48:09.727Z,0.85
2023-05-18T07:49:09.655Z,0.87
2023-05-18T07:50:09.815Z,0.86
2023-05-18T07:51:09.683Z,0.84
2023-05-18T07:52:09.743Z,0.83
2023-05-18T07:53:09.720Z,0.82
2023-05-18T07:54:09.746Z,0.83
2023-05-18T07:55:09.828Z,0.82
2023-05-18T07:56:09.788Z,0.83
2023-05-18T07:57:09.803Z,0.82
2023-05-18T07:58:09.871Z,0.82
2023-05-18T07:59:09.869Z,0.82
2023-05-18T08:00:09.841Z,0.83
2023-05-18T08:01:09.859Z,0.81
2023-05-18T08:02:09.933Z,0.82
2023-05-18T08:03:10.014Z,0.80
2023-05-18T08:04:10.034Z,0.80
2023-05-18T08:05:09.960Z,0.81
2023-05-18T08:06:09.972Z,0.81
2023-05-18T08:07:09.969Z,0.82
2023-05-18T08:08:10.041Z,0.81
2023-05-18T08:09:10.023Z,0.84
2023-05-18T08:10:10.035Z,0.82
2023-05-18T08:11:10.107Z,0.82
2023-05-18T08:12:10.179Z,0.82
2023-05-18T08:13:10.129Z,0.80
2023-05-18T08:14:10.125Z,0.82
2023-05-18T08:15:10.184Z,0.79
2023-05-18T08:16:12.171Z,0.81
2023-05-18T08:17:10.226Z,0.81
2023-05-18T08:18:10.243Z,0.79
2023-05-18T08:19:10.218Z,0.77
2023-05-18T08:20:10.218Z,0.78
2023-05-18T08:21:10.422Z,0.79
2023-05-18T08:22:10.249Z,0.77
2023-05-18T08:23:10.295Z,0.75
2023-05-18T08:24:10.256Z,0.78
2023-05-18T08:25:10.322Z,0.79
2023-05-18T08:26:12.488Z,0.79
2023-05-18T08:27:10.291Z,0.80
2023-05-18T08:28:10.327Z,0.79
2023-05-18T08:29:10.419Z,0.79
2023-05-18T08:30:10.285Z,0.79
2023-05-18T08:31:10.281Z,0.78
2023-05-18T08:32:10.337Z,0.78
2023-05-18T08:33:10.292Z,0.77
2023-05-18T08:34:10.269Z,0.76
2023-05-18T08:35:10.274Z,0.77
2023-05-18T08:36:10.789Z,0.78
2023-05-18T08:37:10.207Z,0.78
2023-05-18T08:38:10.240Z,0.79
2023-05-18T08:39:10.218Z,0.78
2023-05-18T08:40:10.338Z,0.76
2023-05-18T08:41:10.206Z,0.76
2023-05-18T08:42:10.155Z,0.76
2023-05-18T08:43:10.180Z,0.76
2023-05-18T08:44:10.195Z,0.76
2023-05-18T08:45:10.339Z,0.76
2023-05-18T08:46:10.175Z,0.77
2023-05-18T08:47:10.177Z,0.75
2023-05-18T08:48:10.277Z,0.75
2023-05-18T08:49:10.263Z,0.74
2023-05-18T08:50:10.122Z,0.75
2023-05-18T08:51:10.183Z,0.76
2023-05-18T08:52:10.126Z,0.75
2023-05-18T08:53:10.126Z,0.74
2023-05-18T08:54:10.136Z,0.75
2023-05-18T08:55:12.184Z,0.74
2023-05-18T08:56:10.123Z,0.77
2023-05-18T08:57:10.146Z,0.76
2023-05-18T08:58:10.132Z,0.76
2023-05-18T08:59:10.053Z,0.74
2023-05-18T09:00:10.081Z,0.74
2023-05-18T09:01:10.135Z,0.74
2023-05-18T09:02:10.109Z,0.74
2023-05-18T09:03:10.127Z,0.73
2023-05-18T09:04:10.087Z,0.74
2023-05-18T09:05:10.156Z,0.74
2023-05-18T09:06:10.097Z,0.71
2023-05-18T09:07:10.108Z,0.73
2023-05-18T09:08:10.118Z,0.70
2023-05-18T09:09:10.135Z,0.72
2023-05-18T09:10:10.196Z,0.70
2023-05-18T09:11:10.203Z,0.71
2023-05-18T09:12:10.213Z,0.71
2023-05-18T09:13:10.231Z,0.70
2023-05-18T09:14:10.229Z,0.69
2023-05-18T09:15:10.236Z,0.71
2023-05-18T09:16:10.283Z,0.69
2023-05-18T09:17:10.257Z,0.70
2023-05-18T09:18:10.303Z,0.70
2023-05-18T09:19:10.333Z,0.70
2023-05-18T09:20:10.389Z,0.68
2023-05-18T09:21:10.293Z,0.69
2023-05-18T09:22:10.334Z,0.70
2023-05-18T09:23:10.341Z,0.69
2023-05-18T09:24:10.322Z,0.70
2023-05-18T09:25:10.419Z,0.69
2023-05-18T09:26:10.349Z,0.71
2023-05-18T09:27:10.572Z,0.71
2023-05-18T09:28:10.416Z,0.70
2023-05-18T09:29:10.392Z,0.69
2023-05-18T09:30:10.834Z,0.69
2023-05-18T09:31:10.481Z,0.69
2023-05-18T09:32:10.473Z,0.69
2023-05-18T09:33:10.533Z,0.67
2023-05-18T09:34:10.474Z,0.69
2023-05-18T09:35:10.472Z,0.68
2023-05-18T09:36:10.482Z,0.66
2023-05-18T09:37:10.524Z,0.66
2023-05-18T09:38:10.486Z,0.66
2023-05-18T09:39:10.573Z,0.67
2023-05-18T09:40:10.537Z,0.67
2023-05-18T09:41:10.514Z,0.68
2023-05-18T09:42:10.539Z,0.67
2023-05-18T09:43:10.575Z,0.69
2023-05-18T09:44:10.598Z,0.68
2023-05-18T09:45:10.807Z,0.68
2023-05-18T09:46:10.664Z,0.67
2023-05-18T09:47:10.709Z,0.68
2023-05-18T09:48:10.672Z,0.68
2023-05-18T09:49:10.665Z,0.68
2023-05-18T09:50:10.670Z,0.68
2023-05-18T09:51:10.682Z,0.68
2023-05-18T09:52:10.663Z,0.66
2023-05-18T09:53:10.697Z,0.66
2023-05-18T09:54:10.732Z,0.67
2023-05-18T09:55:10.713Z,0.68
2023-05-18T09:56:10.769Z,0.68
2023-05-18T09:57:11.463Z,0.66
2023-05-18T09:58:10.775Z,0.66
2023-05-18T09:59:10.778Z,0.68
2023-05-18T10:00:10.875Z,0.67
2023-05-18T10:01:10.873Z,0.66
2023-05-18T10:02:10.804Z,0.66
2023-05-18T10:03:10.815Z,0.64
2023-05-18T10:04:10.929Z,0.65
2023-05-18T10:05:10.853Z,0.65
2023-05-18T10:06:10.893Z,0.64
2023-05-18T10:07:10.911Z,0.65
2023-05-18T10:08:10.896Z,0.65
2023-05-18T10:09:10.903Z,0.64
2023-05-18T10:10:10.967Z,0.63
2023-05-18T10:11:10.946Z,0.64
2023-05-18T10:12:10.978Z,0.64
2023-05-18T10:13:10.938Z,0.64
2023-05-18T10:14:10.967Z,0.63
2023-05-18T10:15:11.005Z,0.66
2023-05-18T10:16:11.001Z,0.65
2023-05-18T10:17:15.629Z,0.65
2023-05-18T10:18:12.147Z,0.65
2023-05-18T10:19:11.073Z,0.65
2023-05-18T10:20:11.038Z,0.63
2023-05-18T10:21:11.022Z,0.63
2023-05-18T10:22:10.970Z,0.64
2023-05-18T10:23:11.018Z,0.64
2023-05-18T10:24:10.988Z,0.63
2023-05-18T10:25:10.973Z,0.63
2023-05-18T10:26:10.975Z,0.64
2023-05-18T10:27:10.939Z,0.64
2023-05-18T10:28:10.959Z,0.63
2023-05-18T10:29:10.951Z,0.62
2023-05-18T10:30:10.933Z,0.64
2023-05-18T10:31:10.997Z,0.64
2023-05-18T10:32:10.949Z,0.63
2023-05-18T10:33:20.585Z,0.63
2023-05-18T10:34:11.892Z,0.64
2023-05-18T10:35:10.888Z,0.64
2023-05-18T10:36:10.870Z,0.64
2023-05-18T10:37:11.943Z,0.63
2023-05-18T10:38:10.896Z,0.61
2023-05-18T10:39:10.885Z,0.61
2023-05-18T10:40:10.865Z,0.62
2023-05-18T10:41:10.824Z,0.61
2023-05-18T10:42:10.841Z,0.62
2023-05-18T10:43:10.910Z,0.61
2023-05-18T10:44:10.822Z,0.60
2023-05-18T10:45:10.821Z,0.61
2023-05-18T10:46:10.861Z,0.61
2023-05-18T10:47:10.863Z,0.61
2023-05-18T10:48:10.875Z,0.60
2023-05-18T10:49:10.835Z,0.60
2023-05-18T10:50:10.790Z,0.62
2023-05-18T10:51:11.369Z,0.58
2023-05-18T10:52:10.773Z,0.59
2023-05-18T10:53:10.742Z,0.59
2023-05-18T10:54:10.737Z,0.58
2023-05-18T10:55:10.753Z,0.59
2023-05-18T10:56:10.924Z,0.60
2023-05-18T10:57:10.736Z,0.60
2023-05-18T10:58:10.744Z,0.59
2023-05-18T10:59:10.763Z,0.60
2023-05-18T11:00:10.925Z,0.58
2023-05-18T11:01:10.769Z,0.55
2023-05-18T11:02:10.850Z,0.56
2023-05-18T11:03:10.782Z,0.58
2023-05-18T11:04:10.719Z,0.58
2023-05-18T11:05:10.782Z,0.57
2023-05-18T11:06:10.774Z,0.57
2023-05-18T11:07:10.732Z,0.57
2023-05-18T11:08:10.818Z,0.58
2023-05-18T11:09:10.815Z,0.57
2023-05-18T11:10:10.980Z,0.57
2023-05-18T11:11:10.842Z,0.58
2023-05-18T11:12:10.841Z,0.57
2023-05-18T11:13:10.849Z,0.57
2023-05-18T11:14:10.854Z,0.57
2023-05-18T11:15:10.870Z,0.57
2023-05-18T11:16:10.963Z,0.58
2023-05-18T11:17:10.889Z,0.57
2023-05-18T11:18:10.911Z,0.58
2023-05-18T11:19:10.976Z,0.57
2023-05-18T11:20:10.899Z,0.58
2023-05-18T11:21:10.959Z,0.56
2023-05-18T11:22:10.936Z,0.56
2023-05-18T11:23:10.984Z,0.55
2023-05-18T11:24:10.951Z,0.54
2023-05-18T11:25:10.965Z,0.53
2023-05-18T11:26:10.969Z,0.53
2023-05-18T11:27:11.004Z,0.53
2023-05-18T11:28:11.018Z,0.51
2023-05-18T11:29:11.061Z,0.53
2023-05-18T11:31:11.092Z,0.52
2023-05-18T11:32:16.019Z,0.51
2023-05-18T11:33:12.139Z,0.51
2023-05-18T11:34:10.993Z,0.51
2023-05-18T11:35:11.024Z,0.51
2023-05-18T11:36:11.436Z,0.51
2023-05-18T11:37:11.021Z,0.50
2023-05-18T11:38:10.954Z,0.50
2023-05-18T11:39:10.981Z,0.51
2023-05-18T11:40:11.443Z,0.50
2023-05-18T11:41:10.960Z,0.51
2023-05-18T11:42:10.945Z,0.52
2023-05-18T11:43:10.958Z,0.52
2023-05-18T11:44:10.965Z,0.51
2023-05-18T11:45:10.888Z,0.51
2023-05-18T11:46:10.897Z,0.52
2023-05-18T11:47:10.946Z,0.51
2023-05-18T11:48:10.991Z,0.50
2023-05-18T11:49:10.925Z,0.51
2023-05-18T11:50:10.900Z,0.53
2023-05-18T11:51:10.888Z,0.54
2023-05-18T11:52:10.880Z,0.54
2023-05-18T11:53:10.880Z,0.54
2023-05-18T11:54:10.875Z,0.53
2023-05-18T11:55:10.845Z,0.52
2023-05-18T11:56:10.897Z,0.54
2023-05-18T11:57:11.198Z,0.54
2023-05-18T11:58:10.851Z,0.54
2023-05-18T11:59:10.832Z,0.54
2023-05-18T12:00:10.803Z,0.52
2023-05-18T12:01:10.817Z,0.51
2023-05-18T12:02:10.867Z,0.53
2023-05-18T12:03:10.851Z,0.52
2023-05-18T12:04:10.905Z,0.51
2023-05-18T12:05:10.830Z,0.50
2023-05-18T12:06:10.805Z,0.52
2023-05-18T12:07:10.826Z,0.52
2023-05-18T12:08:10.820Z,0.51
2023-05-18T12:09:10.812Z,0.52
2023-05-18T12:10:10.820Z,0.51
2023-05-18T12:11:10.833Z,0.53
2023-05-18T12:12:10.877Z,0.53
2023-05-18T12:13:10.870Z,0.54
2023-05-18T12:14:10.836Z,0.54
2023-05-18T12:15:10.846Z,0.54
2023-05-18T12:16:10.869Z,0.52
2023-05-18T12:17:10.980Z,0.53
2023-05-18T12:18:11.060Z,0.55
2023-05-18T12:19:10.950Z,0.54
2023-05-18T12:20:10.936Z,0.55
2023-05-18T12:21:11.411Z,0.56
2023-05-18T12:22:10.893Z,0.55
2023-05-18T12:23:10.940Z,0.54
2023-05-18T12:24:10.968Z,0.55
2023-05-18T12:25:11.017Z,0.54
2023-05-18T12:26:10.976Z,0.53
2023-05-18T12:27:10.999Z,0.53
2023-05-18T12:28:10.985Z,0.53
2023-05-18T12:29:11.024Z,0.51
2023-05-18T12:30:11.088Z,0.53
2023-05-18T12:31:11.043Z,0.53
2023-05-18T12:32:11.032Z,0.52
2023-05-18T12:33:11.094Z,0.53
2023-05-18T12:34:11.053Z,0.53
2023-05-18T12:35:11.036Z,0.53
2023-05-18T12:36:11.020Z,0.54
2023-05-18T12:37:11.063Z,0.54
2023-05-18T12:38:11.091Z,0.52
2023-05-18T12:39:11.119Z,0.53
2023-05-18T12:40:11.108Z,0.53
2023-05-18T12:41:11.115Z,0.54
2023-05-18T12:42:11.113Z,0.54
2023-05-18T12:43:11.151Z,0.53
2023-05-18T12:44:11.166Z,0.53
2023-05-18T12:45:11.388Z,0.52
2023-05-18T12:46:11.232Z,0.54
2023-05-18T12:47:11.203Z,0.55
2023-05-18T12:48:11.302Z,0.54
2023-05-18T12:49:11.189Z,0.54
2023-05-18T12:50:11.189Z,0.53
2023-05-18T12:51:11.278Z,0.54
2023-05-18T12:52:11.255Z,0.54
2023-05-18T12:53:11.247Z,0.51
2023-05-18T12:54:11.187Z,0.51
2023-05-18T12:55:11.193Z,0.52
2023-05-18T12:56:11.264Z,0.53
2023-05-18T12:57:11.272Z,0.52
2023-05-18T12:58:11.273Z,0.52
2023-05-18T12:59:11.270Z,0.50
2023-05-18T13:00:18.436Z,0.52
2023-05-18T13:01:11.535Z,0.52
2023-05-18T13:02:11.319Z,0.52
2023-05-18T13:03:14.768Z,0.51
2023-05-18T13:04:11.458Z,0.52
2023-05-18T13:05:11.272Z,0.52
2023-05-18T13:06:11.442Z,0.52
2023-05-18T13:07:11.272Z,0.52
2023-05-18T13:08:11.249Z,0.52
2023-05-18T13:09:12.315Z,0.50
2023-05-18T13:10:11.256Z,0.50
2023-05-18T13:11:14.385Z,0.52
2023-05-18T13:12:11.275Z,0.52
2023-05-18T13:13:11.211Z,0.52
2023-05-18T13:14:11.206Z,0.52
2023-05-18T13:15:11.988Z,0.53
2023-05-18T13:16:11.494Z,0.53
2023-05-18T13:17:11.341Z,0.51
2023-05-18T13:18:11.233Z,0.51
2023-05-18T13:19:11.205Z,0.53
2023-05-18T13:20:11.150Z,0.52